Observation data for Childress on 05/24/2020      Previous  Date  Next       Current Mesonet Observations  Soil Data  Daily Summary Page  Observations in Plain Language
KCXS 240500Z 14023G32KT 18/14 A2975 RMK A01 T01790143  RH  083%=      5-min Rain = 0
KCXS 240505Z 14023G30KT 18/14 A2974 RMK A01 T01810141  RH  081%=      5-min Rain = 0
KCXS 240510Z 13024G29KT 18/14 A2974 RMK A01 T01840140  RH  079%=      5-min Rain = 0
KCXS 240515Z 13022G27KT 19/14 A2973 RMK A01 T01850139  RH  077%=      5-min Rain = 0
KCXS 240520Z 12024G30KT 19/14 A2971 RMK A01 T01900135  RH  073%=      5-min Rain = 0
KCXS 240525Z 11020G28KT 20/13 A2971 RMK A01 T01960131  RH  069%=      5-min Rain = 0
KCXS 240530Z 11018G25KT 20/13 A2971 RMK A01 T02000127  RH  065%=      5-min Rain = 0
KCXS 240535Z 11016G25KT 20/13 A2972 RMK A01 T01970129  RH  067%=      5-min Rain = 0
KCXS 240540Z 13014KT 19/13 A2973 RMK A01 T01920132  RH  071%=      5-min Rain = 0
KCXS 240545Z 13010KT 19/13 A2973 RMK A01 T01910133  RH  072%=      5-min Rain = 0
KCXS 240550Z 11012G17KT 19/13 A2973 RMK A01 T01910132  RH  071%=      5-min Rain = 0
KCXS 240555Z 12011KT 19/13 A2974 RMK A01 T01930131  RH  070%=      5-min Rain = 0
KCXS 240600Z 12011KT 19/13 A2974 RMK A01 T01920131  RH  071%=      5-min Rain = 0
KCXS 240605Z 11010KT 19/13 A2975 RMK A01 T01920132  RH  071%=      5-min Rain = 0
KCXS 240610Z 14011KT 19/13 A2976 RMK A01 T01900131  RH  072%=      5-min Rain = 0
KCXS 240615Z 13010KT 19/13 A2976 RMK A01 T01890131  RH  072%=      5-min Rain = 0
KCXS 240620Z 11010KT 19/13 A2976 RMK A01 T01900130  RH  071%=      5-min Rain = 0
KCXS 240625Z 11011KT 19/13 A2977 RMK A01 T01920128  RH  069%=      5-min Rain = 0
KCXS 240630Z 12012KT 19/13 A2977 RMK A01 T01940128  RH  068%=      5-min Rain = 0
KCXS 240635Z 14011KT 19/13 A2978 RMK A01 T01900130  RH  071%=      5-min Rain = 0
KCXS 240640Z 17012G17KT 19/13 A2981 RMK A01 T01880132  RH  073%=      5-min Rain = 0
KCXS 240645Z 18009G14KT 19/13 A2981 RMK A01 T01890131  RH  072%=      5-min Rain = 0
KCXS 240650Z 19012G18KT 19/13 A2981 RMK A01 T01920130  RH  070%=      5-min Rain = 0
KCXS 240655Z 15007KT 19/13 A298 RMK A01 T01930129  RH  069%=      5-min Rain = 0
KCXS 240700Z 22009KT 19/13 A2983 RMK A01 T01900130  RH  071%=      5-min Rain = 0
KCXS 240705Z 19003G8KT 19/13 A2982 RMK A01 T01910129  RH  070%=      5-min Rain = 0
KCXS 240710Z 15005KT 19/13 A2982 RMK A01 T01900128  RH  070%=      5-min Rain = 0
KCXS 240715Z 17005KT 19/13 A2982 RMK A01 T01870129  RH  072%=      5-min Rain = 0
KCXS 240720Z 18006KT 19/13 A2982 RMK A01 T01880129  RH  071%=      5-min Rain = 0
KCXS 240725Z 15003KT 19/13 A2981 RMK A01 T01880129  RH  071%=      5-min Rain = 0
KCXS 240730Z 13003KT 19/13 A2981 RMK A01 T01870129  RH  072%=      5-min Rain = 0
KCXS 240735Z 17003KT 19/13 A2981 RMK A01 T01860128  RH  072%=      5-min Rain = 0
KCXS 240740Z 13004KT 19/13 A298 RMK A01 T01880127  RH  071%=      5-min Rain = 0
KCXS 240745Z 25003KT 19/13 A298 RMK A01 T01870130  RH  072%=      5-min Rain = 0
KCXS 240750Z 29005KT 18/13 A2981 RMK A01 T01780134  RH  079%=      5-min Rain = 0
KCXS 240755Z 03003KT 17/13 A298 RMK A01 T01740133  RH  080%=      5-min Rain = 0
KCXS 240800Z 20002KT 18/13 A298 RMK A01 T01750133  RH  079%=      5-min Rain = 0
KCXS 240805Z 27002KT 18/13 A298 RMK A01 T01750134  RH  080%=      5-min Rain = 0
KCXS 240810Z 34003KT 17/14 A298 RMK A01 T01730135  RH  082%=      5-min Rain = 0
KCXS 240815Z 34002KT 17/13 A2981 RMK A01 T01730134  RH  081%=      5-min Rain = 0
KCXS 240820Z 33001KT 18/13 A298 RMK A01 T01770130  RH  077%=      5-min Rain = 0
KCXS 240825Z 00002KT 18/13 A298 RMK A01 T01810129  RH  075%=      5-min Rain = 0
KCXS 240830Z 36003KT 18/13 A298 RMK A01 T01800134  RH  078%=      5-min Rain = 0
KCXS 240835Z 35002KT 18/13 A298 RMK A01 T01750134  RH  080%=      5-min Rain = 0
KCXS 240840Z 10001KT 18/13 A2982 RMK A01 T01770133  RH  079%=      5-min Rain = 0
KCXS 240845Z 05002KT 17/14 A2981 RMK A01 T01700135  RH  083%=      5-min Rain = 0
KCXS 240850Z 14003KT 16/14 A2982 RMK A01 T01640135  RH  087%=      5-min Rain = 0
KCXS 240855Z 17006KT 16/14 A2983 RMK A01 T01620139  RH  090%=      5-min Rain = 0
KCXS 240900Z 15005KT 16/14 A2982 RMK A01 T01640141  RH  090%=      5-min Rain = 0
KCXS 240905Z 16004KT 16/14 A2982 RMK A01 T01640142  RH  090%=      5-min Rain = 0
KCXS 240910Z 18005KT 17/14 A2982 RMK A01 T01650142  RH  090%=      5-min Rain = 0
KCXS 240915Z 18005KT 17/14 A2982 RMK A01 T01660140  RH  088%=      5-min Rain = 0
KCXS 240920Z 19005KT 17/14 A2982 RMK A01 T01650138  RH  088%=      5-min Rain = 0
KCXS 240925Z 21005KT 17/14 A2982 RMK A01 T01650139  RH  088%=      5-min Rain = 0
KCXS 240930Z 20004KT 17/14 A2982 RMK A01 T01680137  RH  086%=      5-min Rain = 0
KCXS 240935Z 19003KT 17/14 A2982 RMK A01 T01710135  RH  083%=      5-min Rain = 0
KCXS 240940Z 18004KT 17/14 A2982 RMK A01 T01730135  RH  082%=      5-min Rain = 0
KCXS 240945Z 18003KT 17/14 A2982 RMK A01 T01710135  RH  083%=      5-min Rain = 0
KCXS 240950Z 18005KT 17/14 A2982 RMK A01 T01710135  RH  083%=      5-min Rain = 0
KCXS 240955Z 17004KT 17/14 A2981 RMK A01 T01690135  RH  084%=      5-min Rain = 0
KCXS 241000Z 15004KT 17/14 A2981 RMK A01 T01680135  RH  084%=      5-min Rain = 0
KCXS 241005Z 14004KT 17/14 A2981 RMK A01 T01680135  RH  084%=      5-min Rain = 0
KCXS 241010Z 12004KT 17/14 A2981 RMK A01 T01670135  RH  084%=      5-min Rain = 0
KCXS 241015Z 13005KT 17/14 A2982 RMK A01 T01670136  RH  085%=      5-min Rain = 0
KCXS 241020Z 14005KT 17/14 A2981 RMK A01 T01650136  RH  087%=      5-min Rain = 0
KCXS 241025Z 15005KT 16/14 A2981 RMK A01 T01640137  RH  088%=      5-min Rain = 0
KCXS 241030Z 15005KT 16/14 A2981 RMK A01 T01640137  RH  088%=      5-min Rain = 0
KCXS 241035Z 16006KT 16/14 A2981 RMK A01 T01630138  RH  089%=      5-min Rain = 0
KCXS 241040Z 17006KT 16/14 A2981 RMK A01 T01630139  RH  089%=      5-min Rain = 0
KCXS 241045Z 17006KT 16/14 A2981 RMK A01 T01620139  RH  090%=      5-min Rain = 0
KCXS 241050Z 16004KT 16/14 A2981 RMK A01 T01600139  RH  091%=      5-min Rain = 0
KCXS 241055Z 17004KT 16/14 A2981 RMK A01 T01590139  RH  091%=      5-min Rain = 0
KCXS 241100Z 16004KT 16/14 A2981 RMK A01 T01590139  RH  091%=      5-min Rain = 0
KCXS 241105Z 16004KT 16/14 A2981 RMK A01 T01580139  RH  092%=      5-min Rain = 0
KCXS 241110Z 15005KT 16/14 A2981 RMK A01 T01580139  RH  092%=      5-min Rain = 0
KCXS 241115Z 16005KT 16/14 A2981 RMK A01 T01570139  RH  093%=      5-min Rain = 0
KCXS 241120Z 16005KT 16/14 A2981 RMK A01 T01570140  RH  094%=      5-min Rain = 0
KCXS 241125Z 16005KT 16/14 A2981 RMK A01 T01560139  RH  094%=      5-min Rain = 0
KCXS 241130Z 17005KT 16/14 A2982 RMK A01 T01550139  RH  094%=      5-min Rain = 0
KCXS 241135Z 16005KT 16/14 A2982 RMK A01 T01550139  RH  094%=      5-min Rain = 0
KCXS 241140Z 15006KT 16/14 A2982 RMK A01 T01550139  RH  094%=      5-min Rain = 0
KCXS 241145Z 16006KT 16/14 A2982 RMK A01 T01550139  RH  094%=      5-min Rain = 0
KCXS 241150Z 16007KT 16/14 A2982 RMK A01 T01560139  RH  094%=      5-min Rain = 0
KCXS 241155Z 17007KT 16/14 A2982 RMK A01 T01580141  RH  093%=      5-min Rain = 0
KCXS 241200Z 16007KT 16/14 A2982 RMK A01 T01610141  RH  092%=      5-min Rain = 0
KCXS 241205Z 16006KT 16/14 A2982 RMK A01 T01600141  RH  092%=      5-min Rain = 0
KCXS 241210Z 16006KT 16/14 A2982 RMK A01 T01610142  RH  092%=      5-min Rain = 0
KCXS 241215Z 15007KT 16/14 A2982 RMK A01 T01610143  RH  093%=      5-min Rain = 0
KCXS 241220Z 15008KT 16/14 A2982 RMK A01 T01620143  RH  092%=      5-min Rain = 0
KCXS 241225Z 15008KT 16/14 A2982 RMK A01 T01630143  RH  092%=      5-min Rain = 0
KCXS 241230Z 15008KT 16/14 A2982 RMK A01 T01640143  RH  091%=      5-min Rain = 0
KCXS 241235Z 15008KT 17/14 A2983 RMK A01 T01650144  RH  091%=      5-min Rain = 0
KCXS 241240Z 15007KT 17/15 A2983 RMK A01 T01660146  RH  091%=      5-min Rain = 0
KCXS 241245Z 15007KT 17/15 A2983 RMK A01 T01700146  RH  090%=      5-min Rain = 0
KCXS 241250Z 16006KT 17/15 A2983 RMK A01 T01740148  RH  088%=      5-min Rain = 0
KCXS 241255Z 16007KT 18/15 A2983 RMK A01 T01760146  RH  086%=      5-min Rain = 0
KCXS 241300Z 16007KT 18/15 A2983 RMK A01 T01780147  RH  086%=      5-min Rain = 0
KCXS 241305Z 17008KT 18/15 A2983 RMK A01 T01800147  RH  085%=      5-min Rain = 0
KCXS 241310Z 17008KT 18/15 A2983 RMK A01 T01820146  RH  083%=      5-min Rain = 0
KCXS 241315Z 17009KT 18/14 A2983 RMK A01 T01810144  RH  082%=      5-min Rain = 0
KCXS 241320Z 17007KT 18/15 A2983 RMK A01 T01820145  RH  083%=      5-min Rain = 0
KCXS 241325Z 17009KT 18/15 A2983 RMK A01 T01830146  RH  083%=      5-min Rain = 0
KCXS 241330Z 17010KT 19/15 A2983 RMK A01 T01850146  RH  082%=      5-min Rain = 0
KCXS 241335Z 17009G14KT 19/15 A2983 RMK A01 T01880148  RH  081%=      5-min Rain = 0
KCXS 241340Z 17008KT 19/15 A2983 RMK A01 T01940151  RH  080%=      5-min Rain = 0
KCXS 241345Z 17009KT 20/15 A2983 RMK A01 T01980151  RH  078%=      5-min Rain = 0
KCXS 241350Z 17010KT 20/15 A2984 RMK A01 T01990153  RH  078%=      5-min Rain = 0
KCXS 241355Z 16013G19KT 20/15 A2983 RMK A01 T01990154  RH  079%=      5-min Rain = 0
KCXS 241400Z 16012G17KT 20/16 A2983 RMK A01 T02030156  RH  078%=      5-min Rain = 0
KCXS 241405Z 17013KT 21/16 A2984 RMK A01 T02060157  RH  077%=      5-min Rain = 0
KCXS 241410Z 16011KT 21/16 A2984 RMK A01 T02090160  RH  077%=      5-min Rain = 0
KCXS 241415Z 16013KT 21/16 A2983 RMK A01 T02110162  RH  077%=      5-min Rain = 0
KCXS 241420Z 16013KT 21/16 A2983 RMK A01 T02140164  RH  077%=      5-min Rain = 0
KCXS 241425Z 17014G20KT 22/17 A2983 RMK A01 T02170166  RH  076%=      5-min Rain = 0
KCXS 241430Z 16015KT 22/17 A2983 RMK A01 T02180166  RH  076%=      5-min Rain = 0
KCXS 241435Z 16013G18KT 22/17 A2983 RMK A01 T02210168  RH  076%=      5-min Rain = 0
KCXS 241440Z 16013G18KT 22/17 A2983 RMK A01 T02230169  RH  075%=      5-min Rain = 0
KCXS 241445Z 16016KT 22/17 A2983 RMK A01 T02240169  RH  075%=      5-min Rain = 0
KCXS 241450Z 16017KT 22/17 A2983 RMK A01 T02240169  RH  075%=      5-min Rain = 0
KCXS 241455Z 16016G21KT 23/17 A2983 RMK A01 T02260170  RH  074%=      5-min Rain = 0
KCXS 241500Z 17016G21KT 23/17 A2983 RMK A01 T02290171  RH  073%=      5-min Rain = 0
KCXS 241505Z 16015G20KT 23/17 A2983 RMK A01 T02320173  RH  073%=      5-min Rain = 0
KCXS 241510Z 17016G22KT 24/17 A2983 RMK A01 T02350173  RH  072%=      5-min Rain = 0
KCXS 241515Z 17015KT 24/17 A2983 RMK A01 T02370172  RH  071%=      5-min Rain = 0
KCXS 241520Z 17014G19KT 24/17 A2983 RMK A01 T02420174  RH  069%=      5-min Rain = 0
KCXS 241525Z 18014G19KT 25/17 A2982 RMK A01 T02450172  RH  067%=      5-min Rain = 0
KCXS 241530Z 17014KT 25/17 A2982 RMK A01 T02480172  RH  066%=      5-min Rain = 0
KCXS 241535Z 17015G22KT 25/17 A2982 RMK A01 T02500168  RH  063%=      5-min Rain = 0
KCXS 241540Z 17016KT 25/17 A2982 RMK A01 T02490166  RH  063%=      5-min Rain = 0
KCXS 241545Z 17015KT 25/17 A2982 RMK A01 T02520165  RH  062%=      5-min Rain = 0
KCXS 241550Z 17014G21KT 26/17 A2981 RMK A01 T02570167  RH  060%=      5-min Rain = 0
KCXS 241555Z 18015G21KT 26/16 A2982 RMK A01 T02560163  RH  059%=      5-min Rain = 0
KCXS 241600Z 18016G21KT 26/16 A2982 RMK A01 T02590163  RH  058%=      5-min Rain = 0
KCXS 241605Z 18016G22KT 26/16 A2982 RMK A01 T02610164  RH  058%=      5-min Rain = 0
KCXS 241610Z 18014G19KT 27/17 A2982 RMK A01 T02660166  RH  057%=      5-min Rain = 0
KCXS 241615Z 18018G24KT 27/16 A2982 RMK A01 T02670162  RH  055%=      5-min Rain = 0
KCXS 241620Z 18018KT 27/16 A2981 RMK A01 T02660161  RH  055%=      5-min Rain = 0
KCXS 241625Z 18019KT 27/16 A2981 RMK A01 T02660158  RH  054%=      5-min Rain = 0
KCXS 241630Z 19018G25KT 27/16 A2981 RMK A01 T02680157  RH  053%=      5-min Rain = 0
KCXS 241635Z 19017G26KT 27/16 A2981 RMK A01 T02740156  RH  051%=      5-min Rain = 0
KCXS 241640Z 18020G27KT 27/15 A2981 RMK A01 T02740153  RH  050%=      5-min Rain = 0
KCXS 241645Z 18019G28KT 27/15 A2981 RMK A01 T02720152  RH  050%=      5-min Rain = 0
KCXS 241650Z 18017G24KT 28/16 A2981 RMK A01 T02770155  RH  050%=      5-min Rain = 0
KCXS 241655Z 18019G26KT 28/15 A2981 RMK A01 T02780152  RH  048%=      5-min Rain = 0
KCXS 241700Z 18018KT 28/15 A2981 RMK A01 T02790153  RH  048%=      5-min Rain = 0
KCXS 241705Z 18020G27KT 28/15 A2981 RMK A01 T02810152  RH  047%=      5-min Rain = 0
KCXS 241710Z 18020G28KT 28/15 A2981 RMK A01 T02800152  RH  048%=      5-min Rain = 0
KCXS 241715Z 18017G28KT 28/16 A2981 RMK A01 T02820155  RH  048%=      5-min Rain = 0
KCXS 241720Z 18020G26KT 28/15 A2981 RMK A01 T02830154  RH  048%=      5-min Rain = 0
KCXS 241725Z 18017G23KT 28/16 A2981 RMK A01 T02820155  RH  048%=      5-min Rain = 0
KCXS 241730Z 18017G25KT 29/16 A298 RMK A01 T02860160  RH  049%=      5-min Rain = 0
KCXS 241735Z 18018G24KT 29/16 A298 RMK A01 T02870158  RH  048%=      5-min Rain = 0
KCXS 241740Z 19019G25KT 28/16 A298 RMK A01 T02830158  RH  049%=      5-min Rain = 0
KCXS 241745Z 18017G23KT 29/16 A298 RMK A01 T02870161  RH  049%=      5-min Rain = 0
KCXS 241750Z 17019G26KT 29/16 A298 RMK A01 T02870160  RH  048%=      5-min Rain = 0
KCXS 241755Z 17018G24KT 29/16 A298 RMK A01 T02870159  RH  048%=      5-min Rain = 0
KCXS 241800Z 18018G26KT 29/16 A298 RMK A01 T02870160  RH  048%=      5-min Rain = 0
KCXS 241805Z 18016G22KT 29/16 A298 RMK A01 T02890161  RH  048%=      5-min Rain = 0
KCXS 241810Z 17018G25KT 29/16 A298 RMK A01 T02880160  RH  048%=      5-min Rain = 0
KCXS 241815Z 17015G21KT 29/16 A298 RMK A01 T02900162  RH  048%=      5-min Rain = 0
KCXS 241820Z 18015G23KT 29/16 A298 RMK A01 T02920161  RH  047%=      5-min Rain = 0
KCXS 241825Z 19016G22KT 29/16 A298 RMK A01 T02910161  RH  048%=      5-min Rain = 0
KCXS 241830Z 18014G21KT 29/16 A2979 RMK A01 T02910162  RH  048%=      5-min Rain = 0
KCXS 241835Z 19015G22KT 30/16 A2979 RMK A01 T02950164  RH  047%=      5-min Rain = 0
KCXS 241840Z 19015G21KT 30/16 A2979 RMK A01 T02970164  RH  047%=      5-min Rain = 0
KCXS 241845Z 17016G21KT 30/17 A2978 RMK A01 T02980165  RH  047%=      5-min Rain = 0
KCXS 241850Z 18016G22KT 30/17 A2978 RMK A01 T02970165  RH  047%=      5-min Rain = 0
KCXS 241855Z 19016G22KT 29/16 A2978 RMK A01 T02940163  RH  047%=      5-min Rain = 0
KCXS 241900Z 18016G22KT 30/17 A2978 RMK A01 T02970165  RH  047%=      5-min Rain = 0
KCXS 241905Z 18017G22KT 30/17 A2978 RMK A01 T02990166  RH  047%=      5-min Rain = 0
KCXS 241910Z 19014G20KT 30/17 A2978 RMK A01 T03040168  RH  046%=      5-min Rain = 0
KCXS 241915Z 20014G20KT 30/17 A2978 RMK A01 T03000167  RH  047%=      5-min Rain = 0
KCXS 241920Z 20014G20KT 30/17 A2978 RMK A01 T03020166  RH  046%=      5-min Rain = 0
KCXS 241925Z 18016G24KT 30/17 A2977 RMK A01 T03010168  RH  047%=      5-min Rain = 0
KCXS 241930Z 17014G19KT 30/17 A2977 RMK A01 T02980168  RH  048%=      5-min Rain = 0
KCXS 241935Z 18013G21KT 31/17 A2977 RMK A01 T03050169  RH  046%=      5-min Rain = 0
KCXS 241940Z 18013G19KT 30/17 A2976 RMK A01 T03040168  RH  046%=      5-min Rain = 0
KCXS 241945Z 19014G20KT 31/17 A2976 RMK A01 T03070170  RH  046%=      5-min Rain = 0
KCXS 241950Z 18011KT 31/17 A2976 RMK A01 T03140174  RH  046%=      5-min Rain = 0
KCXS 241955Z 18013G20KT 31/17 A2976 RMK A01 T03100171  RH  045%=      5-min Rain = 0
KCXS 242000Z 18012G17KT 31/17 A2975 RMK A01 T03080171  RH  046%=      5-min Rain = 0
KCXS 242005Z 18013G21KT 31/17 A2975 RMK A01 T03070172  RH  047%=      5-min Rain = 0
KCXS 242010Z 16014G21KT 31/17 A2975 RMK A01 T03090172  RH  046%=      5-min Rain = 0
KCXS 242015Z 17014G22KT 31/17 A2975 RMK A01 T03110173  RH  046%=      5-min Rain = 0
KCXS 242020Z 18014G22KT 31/17 A2975 RMK A01 T03070171  RH  046%=      5-min Rain = 0
KCXS 242025Z 16015KT 31/17 A2974 RMK A01 T03090171  RH  046%=      5-min Rain = 0
KCXS 242030Z 16013G22KT 31/17 A2974 RMK A01 T03110172  RH  046%=      5-min Rain = 0
KCXS 242035Z 18014KT 31/17 A2974 RMK A01 T03080172  RH  047%=      5-min Rain = 0
KCXS 242040Z 18011G17KT 31/17 A2974 RMK A01 T03090172  RH  046%=      5-min Rain = 0
KCXS 242045Z 16014G19KT 31/18 A2973 RMK A01 T03130175  RH  046%=      5-min Rain = 0
KCXS 242050Z 18013G18KT 31/17 A2973 RMK A01 T03120173  RH  046%=      5-min Rain = 0
KCXS 242055Z 17010G17KT 31/18 A2973 RMK A01 T03140176  RH  046%=      5-min Rain = 0
KCXS 242100Z 16013G22KT 32/18 A2973 RMK A01 T03160175  RH  045%=      5-min Rain = 0
KCXS 242105Z 17010G15KT 32/18 A2973 RMK A01 T03150175  RH  046%=      5-min Rain = 0
KCXS 242110Z 16014G22KT 32/17 A2972 RMK A01 T03150174  RH  045%=      5-min Rain = 0
KCXS 242115Z 17012G18KT 31/17 A2972 RMK A01 T03130174  RH  046%=      5-min Rain = 0
KCXS 242120Z 14013G19KT 32/18 A2972 RMK A01 T03150176  RH  046%=      5-min Rain = 0
KCXS 242125Z 15012G20KT 32/17 A2971 RMK A01 T03160174  RH  045%=      5-min Rain = 0
KCXS 242130Z 16014G19KT 31/17 A2971 RMK A01 T03140174  RH  045%=      5-min Rain = 0
KCXS 242135Z 15013G18KT 32/17 A2971 RMK A01 T03160174  RH  045%=      5-min Rain = 0
KCXS 242140Z 17012G21KT 32/17 A297 RMK A01 T03160174  RH  045%=      5-min Rain = 0
KCXS 242145Z 16013KT 32/18 A297 RMK A01 T03190176  RH  045%=      5-min Rain = 0
KCXS 242150Z 16014KT 32/18 A297 RMK A01 T03200176  RH  045%=      5-min Rain = 0
KCXS 242155Z 15013G19KT 32/17 A297 RMK A01 T03160173  RH  045%=      5-min Rain = 0
KCXS 242200Z 17012G17KT 32/18 A297 RMK A01 T03180175  RH  045%=      5-min Rain = 0
KCXS 242205Z 15013G19KT 32/18 A2969 RMK A01 T03180176  RH  045%=      5-min Rain = 0
KCXS 242210Z 15016G21KT 32/18 A2969 RMK A01 T03150175  RH  045%=      5-min Rain = 0
KCXS 242215Z 14014KT 31/18 A2968 RMK A01 T03140175  RH  046%=      5-min Rain = 0
KCXS 242220Z 14013KT 32/18 A2968 RMK A01 T03160175  RH  045%=      5-min Rain = 0
KCXS 242225Z 14013KT 32/17 A2968 RMK A01 T03160173  RH  045%=      5-min Rain = 0
KCXS 242230Z 14013KT 31/17 A2968 RMK A01 T03120172  RH  045%=      5-min Rain = 0
KCXS 242235Z 14014G20KT 31/17 A2968 RMK A01 T03130173  RH  045%=      5-min Rain = 0
KCXS 242240Z 14014G21KT 31/17 A2967 RMK A01 T03070171  RH  046%=      5-min Rain = 0
KCXS 242245Z 15012G17KT 31/17 A2967 RMK A01 T03140173  RH  045%=      5-min Rain = 0
KCXS 242250Z 15011G18KT 32/17 A2966 RMK A01 T03150172  RH  045%=      5-min Rain = 0
KCXS 242255Z 14013G19KT 31/17 A2966 RMK A01 T03130171  RH  045%=      5-min Rain = 0
KCXS 242300Z 14013G18KT 31/17 A2966 RMK A01 T03090171  RH  046%=      5-min Rain = 0
KCXS 242305Z 15012KT 31/17 A2965 RMK A01 T03130172  RH  045%=      5-min Rain = 0
KCXS 242310Z 15013G19KT 31/17 A2965 RMK A01 T03140172  RH  045%=      5-min Rain = 0
KCXS 242315Z 14015G22KT 31/17 A2965 RMK A01 T03100170  RH  045%=      5-min Rain = 0
KCXS 242320Z 15015KT 31/17 A2965 RMK A01 T03100168  RH  045%=      5-min Rain = 0
KCXS 242325Z 14012KT 31/17 A2964 RMK A01 T03100170  RH  045%=      5-min Rain = 0
KCXS 242330Z 15012G18KT 31/17 A2964 RMK A01 T03100170  RH  045%=      5-min Rain = 0
KCXS 242335Z 14015KT 31/17 A2964 RMK A01 T03080170  RH  046%=      5-min Rain = 0
KCXS 242340Z 13015G21KT 31/17 A2964 RMK A01 T03070169  RH  046%=      5-min Rain = 0
KCXS 242345Z 12018KT 31/17 A2964 RMK A01 T03070168  RH  045%=      5-min Rain = 0
KCXS 242350Z 15017KT 31/17 A2965 RMK A01 T03070167  RH  045%=      5-min Rain = 0
KCXS 242355Z 15016G21KT 31/17 A2965 RMK A01 T03060165  RH  045%=      5-min Rain = 0
KCXS 250000Z 14015G20KT 30/17 A2965 RMK A01 T03020166  RH  046%=      5-min Rain = 0
KCXS 250005Z 13016G21KT 30/17 A2965 RMK A01 T02980168  RH  048%=      5-min Rain = 0
KCXS 250010Z 14016G22KT 30/17 A2965 RMK A01 T02960167  RH  048%=      5-min Rain = 0
KCXS 250015Z 14015G20KT 30/17 A2964 RMK A01 T02950166  RH  048%=      5-min Rain = 0
KCXS 250020Z 14016G22KT 29/17 A2964 RMK A01 T02940168  RH  049%=      5-min Rain = 0
KCXS 250025Z 14016G21KT 30/17 A2964 RMK A01 T02950169  RH  049%=      5-min Rain = 0
KCXS 250030Z 13017G23KT 29/17 A2964 RMK A01 T02940170  RH  050%=      5-min Rain = 0
KCXS 250035Z 13015KT 29/17 A2963 RMK A01 T02920170  RH  050%=      5-min Rain = 0
KCXS 250040Z 13015G20KT 29/17 A2963 RMK A01 T02910170  RH  050%=      5-min Rain = 0
KCXS 250045Z 13015G21KT 29/17 A2963 RMK A01 T02900170  RH  051%=      5-min Rain = 0
KCXS 250050Z 13015G21KT 29/17 A2964 RMK A01 T02900170  RH  051%=      5-min Rain = 0
KCXS 250055Z 13014G20KT 29/17 A2964 RMK A01 T02880170  RH  051%=      5-min Rain = 0
KCXS 250100Z 13013G18KT 29/17 A2963 RMK A01 T02870169  RH  052%=      5-min Rain = 0
KCXS 250105Z 13013KT 29/17 A2964 RMK A01 T02850170  RH  052%=      5-min Rain = 0
KCXS 250110Z 12012KT 28/17 A2964 RMK A01 T02830170  RH  053%=      5-min Rain = 0
KCXS 250115Z 12018G25KT 28/17 A2965 RMK A01 T02810173  RH  054%=      5-min Rain = 0
KCXS 250120Z 12018G24KT 28/18 A2965 RMK A01 T02790175  RH  056%=      5-min Rain = 0
KCXS 250125Z 13017G22KT 28/18 A2965 RMK A01 T02780176  RH  057%=      5-min Rain = 0
KCXS 250130Z 12019G24KT 28/18 A2966 RMK A01 T02780176  RH  057%=      5-min Rain = 0
KCXS 250135Z 12023G35KT 28/18 A2967 RMK A01 T02750176  RH  058%=      5-min Rain = 0
KCXS 250140Z 13029G37KT 26/18 A2967 RMK A01 T02580175  RH  063%=      5-min Rain = 0
KCXS 250145Z 12025G32KT 25/18 A2967 RMK A01 T02530176  RH  066%=      5-min Rain = 0
KCXS 250150Z 13022G30KT 25/18 A2967 RMK A01 T02510177  RH  067%=      5-min Rain = 0
KCXS 250155Z 13025G33KT 25/18 A2967 RMK A01 T02480176  RH  068%=      5-min Rain = 0
KCXS 250200Z 13023G28KT 25/18 A2968 RMK A01 T02450175  RH  068%=      5-min Rain = 0
KCXS 250205Z 13022G29KT 24/18 A297 RMK A01 T02440175  RH  069%=      5-min Rain = 0
KCXS 250210Z 14018G26KT 24/18 A2972 RMK A01 T02440175  RH  069%=      5-min Rain = 0
KCXS 250215Z 16019G32KT 25/17 A2973 RMK A01 T02450173  RH  067%=      5-min Rain = 0
KCXS 250220Z 23026G40KT 22/14 A2977 RMK A01 T02220136  RH  061%=      5-min Rain = 0
KCXS 250225Z 24022G36KT 18/15 A2978 RMK A01 T01770147  RH  087%=      5-min Rain = 0.01
KCXS 250230Z 25018G26KT 17/15 A2978 RMK A01 T01660150  RH  094%=      5-min Rain = 0.06
KCXS 250235Z 26019G27KT 17/15 A2978 RMK A01 T01650151  RH  096%=      5-min Rain = 0.07
KCXS 250240Z 26017G24KT 16/15 A2978 RMK A01 T01640152  RH  096%=      5-min Rain = 0.04
KCXS 250245Z 25019G27KT 17/15 A2978 RMK A01 T01660152  RH  096%=      5-min Rain = 0.03
KCXS 250250Z 26020G28KT 17/15 A2978 RMK A01 T01680149  RH  093%=      5-min Rain = 0.02
KCXS 250255Z 27014G21KT 17/15 A2979 RMK A01 T01680147  RH  091%=      5-min Rain = 0.02
KCXS 250300Z 29016G21KT 17/15 A298 RMK A01 T01670148  RH  092%=      5-min Rain = 0.01
KCXS 250305Z 30017G22KT 17/15 A2981 RMK A01 T01650148  RH  094%=      5-min Rain = 0
KCXS 250310Z 30015G21KT 17/15 A2982 RMK A01 T01660148  RH  094%=      5-min Rain = 0.01
KCXS 250315Z 30012G17KT 17/15 A2983 RMK A01 T01660150  RH  094%=      5-min Rain = 0
KCXS 250320Z 31015G20KT 17/15 A2984 RMK A01 T01650150  RH  095%=      5-min Rain = 0.01
KCXS 250325Z 32016G22KT 16/15 A2985 RMK A01 T01640149  RH  095%=      5-min Rain = 0.01
KCXS 250330Z 33013G18KT 16/14 A2986 RMK A01 T01610143  RH  093%=      5-min Rain = 0.01
KCXS 250335Z 34011KT 16/14 A2987 RMK A01 T01590138  RH  091%=      5-min Rain = 0.01
KCXS 250340Z 36009KT 16/14 A2987 RMK A01 T01560138  RH  093%=      5-min Rain = 0.03
KCXS 250345Z 02010KT 15/14 A2987 RMK A01 T01540139  RH  094%=      5-min Rain = 0.01
KCXS 250350Z 04009KT 15/14 A2987 RMK A01 T01530139  RH  095%=      5-min Rain = 0.02
KCXS 250355Z 05009KT 15/14 A2988 RMK A01 T01520139  RH  096%=      5-min Rain = 0.01
KCXS 250400Z 06010KT 15/14 A2988 RMK A01 T01520139  RH  096%=      5-min Rain = 0.02
KCXS 250405Z 06012G17KT 15/14 A2988 RMK A01 T01500138  RH  097%=      5-min Rain = 0.03
KCXS 250410Z 05012KT 15/14 A2988 RMK A01 T01480136  RH  097%=      5-min Rain = 0.02
KCXS 250415Z 05014G19KT 15/14 A2988 RMK A01 T01470135  RH  096%=      5-min Rain = 0.02
KCXS 250420Z 05013G19KT 15/13 A2988 RMK A01 T01460134  RH  096%=      5-min Rain = 0.02
KCXS 250425Z 06013KT 15/13 A2989 RMK A01 T01450133  RH  096%=      5-min Rain = 0.02
KCXS 250430Z 05013KT 14/13 A2989 RMK A01 T01440133  RH  097%=      5-min Rain = 0.01
KCXS 250435Z 05012KT 14/13 A2989 RMK A01 T01440134  RH  097%=      5-min Rain = 0.03
KCXS 250440Z 05011KT 14/13 A299 RMK A01 T01440134  RH  098%=      5-min Rain = 0.02
KCXS 250445Z 06012KT 14/13 A299 RMK A01 T01440134  RH  098%=      5-min Rain = 0.02
KCXS 250450Z 06014G19KT 14/13 A2989 RMK A01 T01440134  RH  098%=      5-min Rain = 0.03
KCXS 250455Z 06014G19KT 14/13 A2989 RMK A01 T01430134  RH  098%=      5-min Rain = 0.03

Page generated in 0.0165 seconds.